sensor_id;sensor_type;location;lat;lon;timestamp;pressure;altitude;pressure_sealevel;temperature;humidity
23176;BME280;19910;42.652;23.332;2022-12-29T00:01:27;95552.00;;;4.64;96.35
23176;BME280;19910;42.652;23.332;2022-12-29T00:03:53;95564.31;;;4.60;96.18
23176;BME280;19910;42.652;23.332;2022-12-29T00:06:20;95558.97;;;4.75;95.85
23176;BME280;19910;42.652;23.332;2022-12-29T00:08:47;95558.97;;;4.75;94.91
23176;BME280;19910;42.652;23.332;2022-12-29T00:11:15;95560.03;;;4.49;95.81
23176;BME280;19910;42.652;23.332;2022-12-29T00:13:42;95566.97;;;4.45;97.06
23176;BME280;19910;42.652;23.332;2022-12-29T00:16:29;95574.50;;;4.53;97.42
23176;BME280;19910;42.652;23.332;2022-12-29T00:18:56;95570.75;;;4.54;97.26
23176;BME280;19910;42.652;23.332;2022-12-29T00:21:24;95569.69;;;4.65;96.69
23176;BME280;19910;42.652;23.332;2022-12-29T00:24:12;95562.97;;;4.47;96.23
23176;BME280;19910;42.652;23.332;2022-12-29T00:27:10;95569.38;;;4.51;96.06
23176;BME280;19910;42.652;23.332;2022-12-29T00:29:54;95569.38;;;4.51;96.23
23176;BME280;19910;42.652;23.332;2022-12-29T00:32:40;95573.72;;;4.57;96.94
23176;BME280;19910;42.652;23.332;2022-12-29T00:35:28;95572.09;;;4.46;94.97
23176;BME280;19910;42.652;23.332;2022-12-29T00:37:57;95574.72;;;4.31;94.88
23176;BME280;19910;42.652;23.332;2022-12-29T00:40:42;95570.69;;;4.28;93.89
23176;BME280;19910;42.652;23.332;2022-12-29T00:43:26;95571.78;;;4.33;93.63
23176;BME280;19910;42.652;23.332;2022-12-29T00:46:10;95578.47;;;4.30;94.26
23176;BME280;19910;42.652;23.332;2022-12-29T00:48:38;95574.75;;;4.36;94.11
23176;BME280;19910;42.652;23.332;2022-12-29T00:51:23;95583.59;;;4.37;94.91
23176;BME280;19910;42.652;23.332;2022-12-29T00:53:50;95575.81;;;4.40;95.03
23176;BME280;19910;42.652;23.332;2022-12-29T00:56:16;95582.81;;;4.46;95.09
23176;BME280;19910;42.652;23.332;2022-12-29T00:58:43;95580.41;;;4.55;95.45
23176;BME280;19910;42.652;23.332;2022-12-29T01:01:10;95585.53;;;4.72;94.83
23176;BME280;19910;42.652;23.332;2022-12-29T01:03:38;95577.72;;;4.55;94.06
23176;BME280;19910;42.652;23.332;2022-12-29T01:06:07;95584.94;;;4.44;94.81
23176;BME280;19910;42.652;23.332;2022-12-29T01:08:35;95575.53;;;4.32;95.42
23176;BME280;19910;42.652;23.332;2022-12-29T01:11:04;95573.91;;;4.20;95.97
23176;BME280;19910;42.652;23.332;2022-12-29T01:13:30;95579.25;;;4.20;95.97
23176;BME280;19910;42.652;23.332;2022-12-29T01:15:57;95573.34;;;4.13;96.41
23176;BME280;19910;42.652;23.332;2022-12-29T01:18:25;95575.44;;;4.01;96.89
23176;BME280;19910;42.652;23.332;2022-12-29T01:20:59;95577.84;;;3.92;97.27
23176;BME280;19910;42.652;23.332;2022-12-29T01:23:26;95574.03;;;3.83;97.86
23176;BME280;19910;42.652;23.332;2022-12-29T01:25:53;95569.75;;;3.82;98.53
23176;BME280;19910;42.652;23.332;2022-12-29T01:28:20;95571.03;;;3.75;98.79
23176;BME280;19910;42.652;23.332;2022-12-29T01:30:47;95580.66;;;3.71;98.88
23176;BME280;19910;42.652;23.332;2022-12-29T01:33:14;95572.38;;;3.72;99.09
23176;BME280;19910;42.652;23.332;2022-12-29T01:35:41;95568.34;;;3.70;99.20
23176;BME280;19910;42.652;23.332;2022-12-29T01:38:09;95561.41;;;3.74;99.17
23176;BME280;19910;42.652;23.332;2022-12-29T01:40:43;95560.91;;;3.82;99.09
23176;BME280;19910;42.652;23.332;2022-12-29T01:43:14;95558.25;;;3.92;99.38
23176;BME280;19910;42.652;23.332;2022-12-29T01:45:45;95560.16;;;4.02;98.92
23176;BME280;19910;42.652;23.332;2022-12-29T01:48:14;95558.31;;;4.12;98.13
23176;BME280;19910;42.652;23.332;2022-12-29T01:50:45;95551.88;;;4.13;97.32
23176;BME280;19910;42.652;23.332;2022-12-29T01:53:18;95553.25;;;4.21;97.08
23176;BME280;19910;42.652;23.332;2022-12-29T01:55:49;95549.78;;;4.20;96.79
23176;BME280;19910;42.652;23.332;2022-12-29T01:58:20;95545.75;;;4.28;96.46
23176;BME280;19910;42.652;23.332;2022-12-29T02:00:48;95544.38;;;4.15;96.89
23176;BME280;19910;42.652;23.332;2022-12-29T02:03:16;95544.97;;;4.33;96.47
23176;BME280;19910;42.652;23.332;2022-12-29T02:05:48;95542.81;;;4.35;95.81
23176;BME280;19910;42.652;23.332;2022-12-29T02:08:18;95534.25;;;4.48;95.17
23176;BME280;19910;42.652;23.332;2022-12-29T02:10:46;95539.09;;;4.56;95.09
23176;BME280;19910;42.652;23.332;2022-12-29T02:13:15;95530.53;;;4.64;94.60
23176;BME280;19910;42.652;23.332;2022-12-29T02:15:49;95540.69;;;4.57;94.65
23176;BME280;19910;42.652;23.332;2022-12-29T02:18:28;95535.59;;;4.40;94.98
23176;BME280;19910;42.652;23.332;2022-12-29T02:21:24;95533.16;;;4.39;94.79
23176;BME280;19910;42.652;23.332;2022-12-29T02:27:23;95531.59;;;4.48;94.13
23176;BME280;19910;42.652;23.332;2022-12-29T02:30:04;95531.53;;;4.38;94.43
23176;BME280;19910;42.652;23.332;2022-12-29T02:32:38;95532.91;;;4.45;94.41
23176;BME280;19910;42.652;23.332;2022-12-29T02:35:15;95528.88;;;4.53;94.05
23176;BME280;19910;42.652;23.332;2022-12-29T02:37:54;95529.41;;;4.40;94.06
23176;BME280;19910;42.652;23.332;2022-12-29T02:40:32;95535.28;;;4.26;94.54
23176;BME280;19910;42.652;23.332;2022-12-29T02:43:08;95528.31;;;4.25;94.90
23176;BME280;19910;42.652;23.332;2022-12-29T02:45:41;95533.13;;;4.13;96.09
23176;BME280;19910;42.652;23.332;2022-12-29T02:48:17;95535.81;;;4.18;97.07
23176;BME280;19910;42.652;23.332;2022-12-29T02:50:51;95537.97;;;4.21;96.82
23176;BME280;19910;42.652;23.332;2022-12-29T02:53:20;95531.19;;;3.93;97.53
23176;BME280;19910;42.652;23.332;2022-12-29T02:56:08;95534.22;;;4.22;97.74
23176;BME280;19910;42.652;23.332;2022-12-29T02:58:34;95526.72;;;4.40;96.39
23176;BME280;19910;42.652;23.332;2022-12-29T03:01:22;95525.69;;;4.51;95.48
23176;BME280;19910;42.652;23.332;2022-12-29T03:04:12;95511.72;;;4.49;94.96
23176;BME280;19910;42.652;23.332;2022-12-29T03:06:52;95520.84;;;4.48;94.71
23176;BME280;19910;42.652;23.332;2022-12-29T03:09:30;95512.78;;;4.43;94.86
23176;BME280;19910;42.652;23.332;2022-12-29T03:12:09;95520.31;;;4.56;94.31
23176;BME280;19910;42.652;23.332;2022-12-29T03:14:47;95525.69;;;4.71;93.36
23176;BME280;19910;42.652;23.332;2022-12-29T03:17:39;95518.69;;;4.70;93.02
23176;BME280;19910;42.652;23.332;2022-12-29T03:20:13;95521.94;;;4.77;92.13
23176;BME280;19910;42.652;23.332;2022-12-29T03:22:43;95509.59;;;4.71;91.76
23176;BME280;19910;42.652;23.332;2022-12-29T03:25:18;95507.41;;;4.53;92.78
23176;BME280;19910;42.652;23.332;2022-12-29T03:27:49;95509.56;;;4.41;92.95
23176;BME280;19910;42.652;23.332;2022-12-29T03:30:18;95505.53;;;4.28;93.38
23176;BME280;19910;42.652;23.332;2022-12-29T03:32:46;95515.97;;;4.14;93.75
23176;BME280;19910;42.652;23.332;2022-12-29T03:35:20;95513.25;;;3.99;94.85
23176;BME280;19910;42.652;23.332;2022-12-29T03:37:51;95515.63;;;3.90;95.63
23176;BME280;19910;42.652;23.332;2022-12-29T03:40:20;95521.78;;;3.81;96.21
23176;BME280;19910;42.652;23.332;2022-12-29T03:42:49;95517.97;;;3.72;96.61
23176;BME280;19910;42.652;23.332;2022-12-29T03:45:16;95512.84;;;3.60;96.44
23176;BME280;19910;42.652;23.332;2022-12-29T03:47:43;95516.78;;;3.42;98.38
23176;BME280;19910;42.652;23.332;2022-12-29T03:50:11;95521.56;;;3.35;98.88
23176;BME280;19910;42.652;23.332;2022-12-29T03:52:39;95523.69;;;3.33;98.84
23176;BME280;19910;42.652;23.332;2022-12-29T03:55:06;95525.88;;;3.36;98.64
23176;BME280;19910;42.652;23.332;2022-12-29T03:57:33;95528.50;;;3.31;98.82
23176;BME280;19910;42.652;23.332;2022-12-29T04:00:00;95542.34;;;3.18;98.37
23176;BME280;19910;42.652;23.332;2022-12-29T04:02:27;95545.91;;;2.92;100.00
23176;BME280;19910;42.652;23.332;2022-12-29T04:04:53;95543.22;;;2.87;100.00
23176;BME280;19910;42.652;23.332;2022-12-29T04:07:20;95545.78;;;2.71;100.00
23176;BME280;19910;42.652;23.332;2022-12-29T04:09:48;95549.09;;;2.83;100.00
23176;BME280;19910;42.652;23.332;2022-12-29T04:12:15;95551.75;;;2.83;100.00
23176;BME280;19910;42.652;23.332;2022-12-29T04:14:42;95539.38;;;2.77;100.00
23176;BME280;19910;42.652;23.332;2022-12-29T04:17:09;95543.72;;;2.83;100.00
23176;BME280;19910;42.652;23.332;2022-12-29T04:19:35;95545.53;;;2.78;100.00
23176;BME280;19910;42.652;23.332;2022-12-29T04:22:02;95546.84;;;2.70;100.00
23176;BME280;19910;42.652;23.332;2022-12-29T04:24:29;95555.31;;;2.62;100.00
23176;BME280;19910;42.652;23.332;2022-12-29T04:26:57;95549.22;;;2.67;100.00
23176;BME280;19910;42.652;23.332;2022-12-29T04:29:24;95548.09;;;2.63;100.00
23176;BME280;19910;42.652;23.332;2022-12-29T04:31:50;95552.63;;;2.62;100.00
23176;BME280;19910;42.652;23.332;2022-12-29T04:34:17;95565.50;;;2.65;100.00
23176;BME280;19910;42.652;23.332;2022-12-29T04:36:44;95562.84;;;2.65;100.00
23176;BME280;19910;42.652;23.332;2022-12-29T04:39:11;95558.00;;;2.62;100.00
23176;BME280;19910;42.652;23.332;2022-12-29T04:41:37;95574.56;;;2.59;100.00
23176;BME280;19910;42.652;23.332;2022-12-29T04:44:06;95564.06;;;2.53;100.00
23176;BME280;19910;42.652;23.332;2022-12-29T04:46:32;95564.28;;;2.46;100.00
23176;BME280;19910;42.652;23.332;2022-12-29T04:48:59;95575.06;;;2.56;100.00
23176;BME280;19910;42.652;23.332;2022-12-29T04:51:33;95576.06;;;2.50;100.00
23176;BME280;19910;42.652;23.332;2022-12-29T04:54:00;95575.25;;;2.49;100.00
23176;BME280;19910;42.652;23.332;2022-12-29T04:56:26;95587.38;;;2.57;100.00
23176;BME280;19910;42.652;23.332;2022-12-29T04:58:53;95578.25;;;2.53;100.00
23176;BME280;19910;42.652;23.332;2022-12-29T05:01:21;95579.63;;;2.61;100.00
23176;BME280;19910;42.652;23.332;2022-12-29T05:03:49;95591.75;;;2.68;100.00
23176;BME280;19910;42.652;23.332;2022-12-29T05:06:16;95583.25;;;2.76;100.00
23176;BME280;19910;42.652;23.332;2022-12-29T05:08:43;95579.53;;;2.77;100.00
23176;BME280;19910;42.652;23.332;2022-12-29T05:11:10;95583.31;;;2.81;100.00
23176;BME280;19910;42.652;23.332;2022-12-29T05:13:37;95582.25;;;2.82;100.00
23176;BME280;19910;42.652;23.332;2022-12-29T05:16:04;95576.47;;;2.96;100.00
23176;BME280;19910;42.652;23.332;2022-12-29T05:18:32;95577.03;;;3.03;100.00
23176;BME280;19910;42.652;23.332;2022-12-29T05:20:58;95569.53;;;3.00;100.00
23176;BME280;19910;42.652;23.332;2022-12-29T05:23:28;95571.50;;;2.77;100.00
23176;BME280;19910;42.652;23.332;2022-12-29T05:25:54;95567.81;;;2.89;100.00
23176;BME280;19910;42.652;23.332;2022-12-29T05:28:21;95571.31;;;2.89;100.00
23176;BME280;19910;42.652;23.332;2022-12-29T05:30:48;95579.75;;;3.08;100.00
23176;BME280;19910;42.652;23.332;2022-12-29T05:33:15;95566.44;;;3.13;100.00
23176;BME280;19910;42.652;23.332;2022-12-29T05:35:44;95561.38;;;3.21;100.00
23176;BME280;19910;42.652;23.332;2022-12-29T05:38:11;95572.97;;;3.32;99.63
23176;BME280;19910;42.652;23.332;2022-12-29T05:40:38;95574.63;;;3.43;99.51
23176;BME280;19910;42.652;23.332;2022-12-29T05:43:06;95581.09;;;3.47;99.54
23176;BME280;19910;42.652;23.332;2022-12-29T05:45:33;95582.69;;;3.48;99.04
23176;BME280;19910;42.652;23.332;2022-12-29T05:48:00;95566.63;;;3.48;98.65
23176;BME280;19910;42.652;23.332;2022-12-29T05:50:27;95557.38;;;3.24;98.46
23176;BME280;19910;42.652;23.332;2022-12-29T05:52:55;95585.94;;;3.55;99.22
23176;BME280;19910;42.652;23.332;2022-12-29T05:55:21;95580.78;;;3.44;99.07
23176;BME280;19910;42.652;23.332;2022-12-29T05:57:48;95585.41;;;3.53;99.31
23176;BME280;19910;42.652;23.332;2022-12-29T06:00:15;95597.00;;;3.64;99.29
23176;BME280;19910;42.652;23.332;2022-12-29T06:02:42;95593.47;;;3.58;99.31
23176;BME280;19910;42.652;23.332;2022-12-29T06:05:09;95592.78;;;3.83;99.07
23176;BME280;19910;42.652;23.332;2022-12-29T06:07:36;95588.78;;;3.86;98.26
23176;BME280;19910;42.652;23.332;2022-12-29T06:10:05;95591.53;;;3.96;98.47
23176;BME280;19910;42.652;23.332;2022-12-29T06:12:32;95592.63;;;4.05;98.14
23176;BME280;19910;42.652;23.332;2022-12-29T06:14:58;95595.63;;;4.19;97.81
23176;BME280;19910;42.652;23.332;2022-12-29T06:17:25;95590.53;;;4.27;97.28
23176;BME280;19910;42.652;23.332;2022-12-29T06:19:52;95588.97;;;4.42;96.43
23176;BME280;19910;42.652;23.332;2022-12-29T06:22:19;95594.38;;;4.67;95.50
23176;BME280;19910;42.652;23.332;2022-12-29T06:24:45;95590.63;;;4.83;95.37
23176;BME280;19910;42.652;23.332;2022-12-29T06:27:13;95589.03;;;4.87;94.53
23176;BME280;19910;42.652;23.332;2022-12-29T06:29:43;95590.63;;;5.09;93.69
23176;BME280;19910;42.652;23.332;2022-12-29T06:32:09;95582.56;;;5.24;92.88
23176;BME280;19910;42.652;23.332;2022-12-29T06:34:36;95587.94;;;5.34;91.99
23176;BME280;19910;42.652;23.332;2022-12-29T06:37:03;95590.09;;;5.32;92.52
23176;BME280;19910;42.652;23.332;2022-12-29T06:39:30;95597.88;;;5.23;92.17
23176;BME280;19910;42.652;23.332;2022-12-29T06:41:57;95587.41;;;5.42;92.43
23176;BME280;19910;42.652;23.332;2022-12-29T06:44:25;95591.16;;;5.36;91.46
23176;BME280;19910;42.652;23.332;2022-12-29T06:46:51;95601.09;;;5.35;92.20
23176;BME280;19910;42.652;23.332;2022-12-29T06:49:18;95599.75;;;5.38;91.98
23176;BME280;19910;42.652;23.332;2022-12-29T06:51:45;95591.72;;;5.28;92.19
23176;BME280;19910;42.652;23.332;2022-12-29T06:54:12;95592.78;;;5.37;92.37
23176;BME280;19910;42.652;23.332;2022-12-29T06:56:39;95601.34;;;5.49;92.65
23176;BME280;19910;42.652;23.332;2022-12-29T06:59:06;95605.63;;;5.65;92.00
23176;BME280;19910;42.652;23.332;2022-12-29T07:01:34;95606.16;;;5.72;91.35
23176;BME280;19910;42.652;23.332;2022-12-29T07:04:01;95602.88;;;6.01;90.44
23176;BME280;19910;42.652;23.332;2022-12-29T07:06:28;95597.25;;;5.82;89.60
23176;BME280;19910;42.652;23.332;2022-12-29T07:08:54;95599.66;;;5.89;89.54
23176;BME280;19910;42.652;23.332;2022-12-29T07:11:23;95597.69;;;6.20;90.03
23176;BME280;19910;42.652;23.332;2022-12-29T07:13:50;95606.53;;;6.25;88.64
23176;BME280;19910;42.652;23.332;2022-12-29T07:16:16;95603.72;;;6.46;87.98
23176;BME280;19910;42.652;23.332;2022-12-29T07:18:44;95600.41;;;6.64;86.72
23176;BME280;19910;42.652;23.332;2022-12-29T07:21:11;95595.50;;;6.71;86.19
23176;BME280;19910;42.652;23.332;2022-12-29T07:23:38;95601.41;;;6.78;85.46
23176;BME280;19910;42.652;23.332;2022-12-29T07:26:08;95595.84;;;6.98;84.47
23176;BME280;19910;42.652;23.332;2022-12-29T07:28:36;95595.22;;;7.11;84.08
23176;BME280;19910;42.652;23.332;2022-12-29T07:31:03;95602.31;;;7.02;83.90
23176;BME280;19910;42.652;23.332;2022-12-29T07:33:31;95601.34;;;7.22;83.39
23176;BME280;19910;42.652;23.332;2022-12-29T07:35:59;95596.44;;;6.95;82.79
23176;BME280;19910;42.652;23.332;2022-12-29T07:38:26;95600.38;;;6.69;83.77
23176;BME280;19910;42.652;23.332;2022-12-29T07:40:56;95599.16;;;6.46;84.30
23176;BME280;19910;42.652;23.332;2022-12-29T07:43:23;95601.69;;;6.27;84.91
23176;BME280;19910;42.652;23.332;2022-12-29T07:45:50;95604.72;;;6.60;84.85
23176;BME280;19910;42.652;23.332;2022-12-29T07:48:17;95597.59;;;6.40;84.55
23176;BME280;19910;42.652;23.332;2022-12-29T07:50:43;95600.38;;;6.69;85.00
23176;BME280;19910;42.652;23.332;2022-12-29T07:53:12;95600.78;;;6.47;84.53
23176;BME280;19910;42.652;23.332;2022-12-29T07:55:38;95606.34;;;6.61;84.43
23176;BME280;19910;42.652;23.332;2022-12-29T07:58:05;95603.00;;;6.79;83.55
23176;BME280;19910;42.652;23.332;2022-12-29T08:00:32;95604.47;;;7.00;82.48
23176;BME280;19910;42.652;23.332;2022-12-29T08:02:59;95601.41;;;7.46;80.64
23176;BME280;19910;42.652;23.332;2022-12-29T08:05:26;95591.53;;;7.65;79.25
23176;BME280;19910;42.652;23.332;2022-12-29T08:07:52;95615.00;;;7.89;78.82
23176;BME280;19910;42.652;23.332;2022-12-29T08:10:22;95606.59;;;7.66;77.70
23176;BME280;19910;42.652;23.332;2022-12-29T08:12:49;95603.56;;;7.44;78.79
23176;BME280;19910;42.652;23.332;2022-12-29T08:15:16;95606.13;;;7.59;79.25
23176;BME280;19910;42.652;23.332;2022-12-29T08:17:42;95602.72;;;7.77;78.15
23176;BME280;19910;42.652;23.332;2022-12-29T08:20:09;95594.00;;;7.85;77.36
23176;BME280;19910;42.652;23.332;2022-12-29T08:22:36;95597.44;;;8.15;77.05
23176;BME280;19910;42.652;23.332;2022-12-29T08:25:04;95589.75;;;8.27;76.40
23176;BME280;19910;42.652;23.332;2022-12-29T08:27:32;95588.53;;;8.38;75.92
23176;BME280;19910;42.652;23.332;2022-12-29T08:29:59;95591.25;;;8.38;75.12
23176;BME280;19910;42.652;23.332;2022-12-29T08:32:26;95587.69;;;8.43;74.80
23176;BME280;19910;42.652;23.332;2022-12-29T08:34:53;95589.06;;;8.40;74.90
23176;BME280;19910;42.652;23.332;2022-12-29T08:37:20;95594.56;;;8.30;74.96
23176;BME280;19910;42.652;23.332;2022-12-29T08:39:47;95588.50;;;8.43;75.37
23176;BME280;19910;42.652;23.332;2022-12-29T08:42:14;95587.25;;;8.54;74.66
23176;BME280;19910;42.652;23.332;2022-12-29T08:44:42;95585.28;;;8.41;74.18
23176;BME280;19910;42.652;23.332;2022-12-29T08:47:09;95600.59;;;8.22;74.74
23176;BME280;19910;42.652;23.332;2022-12-29T08:49:37;95591.34;;;7.80;76.07
23176;BME280;19910;42.652;23.332;2022-12-29T08:52:04;95605.88;;;7.56;77.27
23176;BME280;19910;42.652;23.332;2022-12-29T08:54:31;95602.06;;;7.33;77.44
23176;BME280;19910;42.652;23.332;2022-12-29T08:56:58;95596.91;;;7.36;78.26
23176;BME280;19910;42.652;23.332;2022-12-29T08:59:25;95597.09;;;7.45;77.22
23176;BME280;19910;42.652;23.332;2022-12-29T09:01:53;95584.94;;;7.19;78.01
23176;BME280;19910;42.652;23.332;2022-12-29T09:04:20;95586.94;;;7.37;77.28
23176;BME280;19910;42.652;23.332;2022-12-29T09:06:49;95585.25;;;7.12;78.87
23176;BME280;19910;42.652;23.332;2022-12-29T09:09:16;95583.88;;;7.14;78.27
23176;BME280;19910;42.652;23.332;2022-12-29T09:11:44;95580.91;;;7.16;78.79
23176;BME280;19910;42.652;23.332;2022-12-29T09:14:10;95587.19;;;7.06;79.41
23176;BME280;19910;42.652;23.332;2022-12-29T09:16:37;95582.78;;;7.16;79.54
23176;BME280;19910;42.652;23.332;2022-12-29T09:19:06;95572.28;;;7.48;78.67
23176;BME280;19910;42.652;23.332;2022-12-29T09:21:33;95568.84;;;7.66;77.85
23176;BME280;19910;42.652;23.332;2022-12-29T09:23:59;95570.16;;;7.93;76.87
23176;BME280;19910;42.652;23.332;2022-12-29T09:26:29;95566.81;;;8.06;75.60
23176;BME280;19910;42.652;23.332;2022-12-29T09:28:56;95568.44;;;8.26;75.25
23176;BME280;19910;42.652;23.332;2022-12-29T09:31:26;95551.63;;;8.52;73.66
23176;BME280;19910;42.652;23.332;2022-12-29T09:33:55;95553.44;;;8.38;74.05
23176;BME280;19910;42.652;23.332;2022-12-29T09:36:26;95567.38;;;8.03;74.38
23176;BME280;19910;42.652;23.332;2022-12-29T09:38:53;95558.97;;;8.28;75.43
23176;BME280;19910;42.652;23.332;2022-12-29T09:41:24;95549.06;;;8.42;74.20
23176;BME280;19910;42.652;23.332;2022-12-29T09:44:03;95546.72;;;8.36;74.76
23176;BME280;19910;42.652;23.332;2022-12-29T09:46:35;95552.56;;;8.62;74.67
23176;BME280;19910;42.652;23.332;2022-12-29T09:49:16;95551.41;;;8.68;73.29
23176;BME280;19910;42.652;23.332;2022-12-29T09:51:49;95544.28;;;8.15;75.19
23176;BME280;19910;42.652;23.332;2022-12-29T09:54:36;95552.28;;;8.20;74.82
23176;BME280;19910;42.652;23.332;2022-12-29T09:57:13;95532.28;;;8.64;74.06
23176;BME280;19910;42.652;23.332;2022-12-29T09:59:42;95537.31;;;8.52;73.47
23176;BME280;19910;42.652;23.332;2022-12-29T10:02:20;95539.44;;;8.55;73.16
23176;BME280;19910;42.652;23.332;2022-12-29T10:04:50;95536.88;;;8.64;72.74
23176;BME280;19910;42.652;23.332;2022-12-29T10:07:27;95529.66;;;8.40;73.51
23176;BME280;19910;42.652;23.332;2022-12-29T10:10:03;95522.50;;;8.49;73.89
23176;BME280;19910;42.652;23.332;2022-12-29T10:12:48;95513.75;;;8.58;73.77
23176;BME280;19910;42.652;23.332;2022-12-29T10:15:31;95519.75;;;8.54;73.89
23176;BME280;19910;42.652;23.332;2022-12-29T10:18:12;95515.06;;;8.41;74.41
23176;BME280;19910;42.652;23.332;2022-12-29T10:20:48;95514.56;;;8.39;74.44
23176;BME280;19910;42.652;23.332;2022-12-29T10:23:27;95520.31;;;8.51;74.25
23176;BME280;19910;42.652;23.332;2022-12-29T10:25:57;95514.22;;;8.97;74.29
23176;BME280;19910;42.652;23.332;2022-12-29T10:28:33;95507.28;;;9.23;72.71
23176;BME280;19910;42.652;23.332;2022-12-29T10:31:03;95500.28;;;9.22;71.62
23176;BME280;19910;42.652;23.332;2022-12-29T10:33:35;95505.59;;;9.27;71.55
23176;BME280;19910;42.652;23.332;2022-12-29T10:36:12;95502.63;;;9.43;71.11
23176;BME280;19910;42.652;23.332;2022-12-29T10:38:47;95496.88;;;9.31;71.49
23176;BME280;19910;42.652;23.332;2022-12-29T10:41:21;95494.94;;;9.17;71.31
23176;BME280;19910;42.652;23.332;2022-12-29T10:43:56;95488.16;;;9.34;71.52
23176;BME280;19910;42.652;23.332;2022-12-29T10:46:27;95486.59;;;9.60;70.60
23176;BME280;19910;42.652;23.332;2022-12-29T10:48:55;95491.31;;;9.41;70.91
23176;BME280;19910;42.652;23.332;2022-12-29T10:51:26;95486.97;;;9.26;71.91
23176;BME280;19910;42.652;23.332;2022-12-29T10:53:59;95480.34;;;9.32;72.10
23176;BME280;19910;42.652;23.332;2022-12-29T10:56:32;95480.88;;;9.48;71.68
23176;BME280;19910;42.652;23.332;2022-12-29T10:59:04;95475.66;;;9.24;72.77
23176;BME280;19910;42.652;23.332;2022-12-29T11:01:42;95465.66;;;9.52;71.93
23176;BME280;19910;42.652;23.332;2022-12-29T11:04:28;95464.56;;;9.39;71.43
23176;BME280;19910;42.652;23.332;2022-12-29T11:06:59;95452.44;;;9.37;71.27
23176;BME280;19910;42.652;23.332;2022-12-29T11:09:29;95451.84;;;9.40;71.45
23176;BME280;19910;42.652;23.332;2022-12-29T11:11:57;95451.34;;;9.38;71.50
23176;BME280;19910;42.652;23.332;2022-12-29T11:14:29;95456.16;;;9.41;71.41
23176;BME280;19910;42.652;23.332;2022-12-29T11:16:58;95449.13;;;9.40;70.97
23176;BME280;19910;42.652;23.332;2022-12-29T11:19:26;95446.72;;;9.38;71.43
23176;BME280;19910;42.652;23.332;2022-12-29T11:21:54;95446.72;;;9.52;71.77
23176;BME280;19910;42.652;23.332;2022-12-29T11:24:26;95452.72;;;9.76;72.41
23176;BME280;19910;42.652;23.332;2022-12-29T11:27:13;95450.31;;;9.88;69.90
23176;BME280;19910;42.652;23.332;2022-12-29T11:29:44;95436.50;;;9.49;70.88
23176;BME280;19910;42.652;23.332;2022-12-29T11:32:19;95437.81;;;9.65;71.16
23176;BME280;19910;42.652;23.332;2022-12-29T11:34:49;95435.31;;;9.55;71.27
23176;BME280;19910;42.652;23.332;2022-12-29T11:37:19;95442.09;;;9.25;71.50
23176;BME280;19910;42.652;23.332;2022-12-29T11:39:57;95437.09;;;9.59;70.70
23176;BME280;19910;42.652;23.332;2022-12-29T11:42:35;95432.59;;;9.69;71.84
23176;BME280;19910;42.652;23.332;2022-12-29T11:45:13;95427.66;;;9.84;70.55
23176;BME280;19910;42.652;23.332;2022-12-29T11:47:44;95429.38;;;9.80;70.61
23176;BME280;19910;42.652;23.332;2022-12-29T11:50:22;95439.09;;;9.81;70.57
23176;BME280;19910;42.652;23.332;2022-12-29T11:53:03;95429.38;;;9.80;70.67
23176;BME280;19910;42.652;23.332;2022-12-29T11:55:32;95424.06;;;9.61;70.93
23176;BME280;19910;42.652;23.332;2022-12-29T11:58:11;95423.56;;;9.59;70.91
23176;BME280;19910;42.652;23.332;2022-12-29T12:00:45;95431.50;;;9.56;71.15
23176;BME280;19910;42.652;23.332;2022-12-29T12:03:18;95418.06;;;9.51;71.89
23176;BME280;19910;42.652;23.332;2022-12-29T12:05:50;95424.88;;;9.76;71.56
23176;BME280;19910;42.652;23.332;2022-12-29T12:08:33;95428.69;;;9.75;70.74
23176;BME280;19910;42.652;23.332;2022-12-29T12:11:07;95420.66;;;9.83;71.29
23176;BME280;19910;42.652;23.332;2022-12-29T12:13:41;95424.44;;;9.96;69.89
23176;BME280;19910;42.652;23.332;2022-12-29T12:16:16;95420.28;;;10.26;70.24
23176;BME280;19910;42.652;23.332;2022-12-29T12:18:48;95417.72;;;10.43;69.71
23176;BME280;19910;42.652;23.332;2022-12-29T12:21:21;95412.78;;;10.45;68.35
23176;BME280;19910;42.652;23.332;2022-12-29T12:24:01;95408.28;;;10.41;68.52
23176;BME280;19910;42.652;23.332;2022-12-29T12:26:35;95415.81;;;10.08;69.30
23176;BME280;19910;42.652;23.332;2022-12-29T12:29:10;95404.72;;;9.95;69.99
23176;BME280;19910;42.652;23.332;2022-12-29T12:31:46;95407.44;;;10.18;69.71
23176;BME280;19910;42.652;23.332;2022-12-29T12:34:18;95403.56;;;10.24;69.01
23176;BME280;19910;42.652;23.332;2022-12-29T12:36:59;95402.34;;;10.16;69.62
23176;BME280;19910;42.652;23.332;2022-12-29T12:39:37;95403.94;;;10.17;70.13
23176;BME280;19910;42.652;23.332;2022-12-29T12:42:22;95398.53;;;10.17;69.14
23176;BME280;19910;42.652;23.332;2022-12-29T12:45:03;95404.25;;;10.16;69.49
23176;BME280;19910;42.652;23.332;2022-12-29T12:47:53;95397.34;;;10.23;68.95
23176;BME280;19910;42.652;23.332;2022-12-29T12:50:42;95404.31;;;10.38;68.83
23176;BME280;19910;42.652;23.332;2022-12-29T12:53:26;95398.56;;;10.04;69.62
23176;BME280;19910;42.652;23.332;2022-12-29T12:56:07;95399.78;;;9.97;70.22
23176;BME280;19910;42.652;23.332;2022-12-29T12:58:46;95396.97;;;10.03;71.12
23176;BME280;19910;42.652;23.332;2022-12-29T13:01:28;95405.03;;;9.80;70.90
23176;BME280;19910;42.652;23.332;2022-12-29T13:04:24;95397.41;;;9.82;70.61
23176;BME280;19910;42.652;23.332;2022-12-29T13:07:02;95393.94;;;9.68;71.51
23176;BME280;19910;42.652;23.332;2022-12-29T13:09:45;95391.00;;;9.78;71.30
23176;BME280;19910;42.652;23.332;2022-12-29T13:12:22;95396.19;;;9.88;70.81
23176;BME280;19910;42.652;23.332;2022-12-29T13:15:00;95392.59;;;9.79;70.92
23176;BME280;19910;42.652;23.332;2022-12-29T13:17:36;95390.31;;;9.59;71.38
23176;BME280;19910;42.652;23.332;2022-12-29T13:20:19;95397.84;;;9.62;71.56
23176;BME280;19910;42.652;23.332;2022-12-29T13:22:56;95403.66;;;9.55;71.34